createdAt,value
2023-09-11T00:00:07.535Z,0.50
2023-09-11T00:03:09.612Z,0.47
2023-09-11T00:06:11.679Z,0.28
2023-09-11T00:09:13.759Z,0.22
2023-09-11T00:12:17.045Z,0.30
2023-09-11T00:15:19.073Z,0.30
2023-09-11T00:18:20.922Z,0.43
2023-09-11T00:21:24.335Z,0.28
2023-09-11T00:24:26.073Z,0.60
2023-09-11T00:27:27.960Z,0.30
2023-09-11T00:30:29.705Z,0.70
2023-09-11T00:33:31.566Z,0.35
2023-09-11T00:36:33.576Z,0.50
2023-09-11T00:39:35.349Z,1.20
2023-09-11T00:42:37.318Z,0.60
2023-09-11T00:45:39.810Z,0.30
2023-09-11T00:48:41.947Z,0.47
2023-09-11T00:51:43.993Z,0.37
2023-09-11T00:54:45.962Z,0.30
2023-09-11T00:57:47.779Z,0.40
2023-09-11T01:00:49.749Z,0.23
2023-09-11T01:03:51.998Z,0.20
2023-09-11T01:06:53.786Z,0.65
2023-09-11T01:09:55.664Z,0.88
2023-09-11T01:12:57.584Z,0.30
2023-09-11T01:16:11.455Z,0.30
2023-09-11T01:19:35.261Z,0.22
2023-09-11T01:23:09.390Z,0.43
2023-09-11T01:26:25.042Z,0.20
2023-09-11T01:29:28.145Z,0.20
2023-09-11T01:32:30.479Z,0.57
2023-09-11T01:35:32.582Z,0.20
2023-09-11T01:38:34.612Z,0.40
2023-09-11T01:41:39.482Z,0.52
2023-09-11T01:44:44.982Z,0.30
2023-09-11T01:47:48.535Z,0.20
2023-09-11T01:50:50.687Z,0.60
2023-09-11T01:53:52.997Z,0.40
2023-09-11T01:56:55.456Z,0.40
2023-09-11T01:59:57.341Z,0.20
2023-09-11T02:02:59.256Z,0.40
2023-09-11T02:06:01.118Z,0.40
2023-09-11T02:09:03.589Z,0.40
2023-09-11T02:12:05.692Z,0.35
2023-09-11T02:15:07.955Z,1.13
2023-09-11T02:18:09.857Z,0.33
2023-09-11T02:21:11.677Z,0.20
2023-09-11T02:24:13.596Z,0.57
2023-09-11T02:27:15.367Z,0.20
2023-09-11T02:30:17.592Z,0.40
2023-09-11T02:33:19.608Z,0.20
2023-09-11T02:36:21.591Z,0.20
2023-09-11T02:39:23.377Z,0.20
2023-09-11T02:42:25.210Z,0.30
2023-09-11T02:45:27.609Z,0.20
2023-09-11T02:48:29.549Z,0.20
2023-09-11T02:51:32.118Z,0.20
2023-09-11T02:54:33.913Z,0.20
2023-09-11T02:57:35.767Z,0.85
2023-09-11T03:00:37.913Z,0.50
2023-09-11T03:03:39.761Z,0.70
2023-09-11T03:06:41.566Z,0.20
2023-09-11T03:09:43.346Z,0.37
2023-09-11T03:12:45.221Z,0.40
2023-09-11T03:15:47.085Z,0.60
2023-09-11T03:18:48.882Z,0.73
2023-09-11T03:21:50.724Z,0.20
2023-09-11T03:24:52.514Z,0.22
2023-09-11T03:27:54.549Z,0.30
2023-09-11T03:30:56.983Z,0.70
2023-09-11T03:33:58.898Z,0.73
2023-09-11T03:37:00.673Z,0.30
2023-09-11T03:40:08.056Z,0.20
2023-09-11T03:43:09.797Z,0.60
2023-09-11T03:46:13.708Z,0.20
2023-09-11T03:49:15.679Z,0.20
2023-09-11T03:52:17.691Z,0.65
2023-09-11T03:55:19.620Z,0.30
2023-09-11T03:58:21.362Z,0.52
2023-09-11T04:01:23.082Z,0.60
2023-09-11T04:04:25.011Z,0.60
2023-09-11T04:07:27.018Z,0.50
2023-09-11T04:10:29.397Z,0.40
2023-09-11T04:13:31.113Z,0.50
2023-09-11T04:16:32.977Z,0.30
2023-09-11T04:19:34.798Z,0.57
2023-09-11T04:22:36.853Z,1.02
2023-09-11T04:25:38.739Z,0.30
2023-09-11T04:28:40.806Z,0.60
2023-09-11T04:31:42.972Z,0.93
2023-09-11T04:34:45.033Z,0.20
2023-09-11T04:37:47.184Z,0.32
2023-09-11T04:40:49.256Z,0.40
2023-09-11T04:43:51.090Z,0.20
2023-09-11T04:46:52.883Z,0.67
2023-09-11T04:49:54.596Z,0.30
2023-09-11T04:52:57.232Z,0.55
2023-09-11T04:55:59.053Z,0.30
2023-09-11T04:59:00.855Z,0.40
2023-09-11T05:02:02.644Z,0.17
2023-09-11T05:05:04.761Z,0.20
2023-09-11T05:08:07.313Z,0.20
2023-09-11T05:11:09.075Z,0.40
2023-09-11T05:14:10.845Z,0.40
2023-09-11T05:17:14.337Z,0.50
2023-09-11T05:20:16.082Z,0.30
2023-09-11T05:23:18.787Z,0.50
2023-09-11T05:26:22.107Z,0.20
2023-09-11T05:29:24.110Z,0.20
2023-09-11T05:32:26.490Z,0.20
2023-09-11T05:35:28.348Z,0.40
2023-09-11T05:38:30.627Z,0.75
2023-09-11T05:41:32.588Z,0.77
2023-09-11T05:44:34.510Z,0.20
2023-09-11T05:47:38.222Z,0.50
2023-09-11T05:50:40.292Z,0.30
2023-09-11T05:53:43.085Z,0.40
2023-09-11T05:56:44.920Z,0.32
2023-09-11T05:59:49.470Z,0.57
2023-09-11T06:02:51.513Z,0.30
2023-09-11T06:05:53.379Z,0.30
2023-09-11T06:08:56.706Z,0.55
2023-09-11T06:11:59.294Z,0.85
2023-09-11T06:15:01.695Z,0.37
2023-09-11T06:18:05.750Z,0.43
2023-09-11T06:21:07.674Z,0.57
2023-09-11T06:24:09.656Z,0.55
2023-09-11T06:27:11.753Z,0.52
2023-09-11T06:30:14.200Z,0.60
2023-09-11T06:33:16.140Z,0.77
2023-09-11T06:36:17.947Z,1.37
2023-09-11T06:39:22.825Z,0.37
2023-09-11T06:42:25.936Z,0.62
2023-09-11T06:45:27.874Z,0.73
2023-09-11T06:48:30.121Z,0.30
2023-09-11T06:51:32.017Z,0.50
2023-09-11T06:54:36.388Z,0.82
2023-09-11T06:57:42.725Z,0.40
2023-09-11T07:00:44.585Z,0.85
2023-09-11T07:03:47.321Z,0.43
2023-09-11T07:06:49.238Z,1.17
2023-09-11T07:09:52.343Z,0.40
2023-09-11T07:12:54.162Z,0.30
2023-09-11T07:16:00.288Z,0.50
2023-09-11T07:19:02.256Z,0.50
2023-09-11T07:22:04.326Z,0.97
2023-09-11T07:25:12.476Z,0.80
2023-09-11T07:28:15.358Z,0.50
2023-09-11T07:31:17.433Z,0.40
2023-09-11T07:34:19.287Z,0.57
2023-09-11T07:37:21.050Z,0.90
2023-09-11T07:40:22.948Z,1.00
2023-09-11T07:43:24.730Z,0.50
2023-09-11T07:46:26.576Z,1.08
2023-09-11T07:49:28.485Z,1.13
2023-09-11T07:52:30.294Z,1.40
2023-09-11T07:55:37.010Z,0.50
2023-09-11T07:58:39.644Z,0.82
2023-09-11T08:01:41.847Z,1.08
2023-09-11T08:04:43.719Z,1.00
2023-09-11T08:07:45.614Z,0.60
2023-09-11T08:10:47.343Z,0.60
2023-09-11T08:13:51.176Z,0.70
2023-09-11T08:16:53.019Z,0.75
2023-09-11T08:19:54.888Z,0.70
2023-09-11T08:22:58.733Z,0.67
2023-09-11T08:26:02.766Z,0.93
2023-09-11T08:29:04.934Z,0.90
2023-09-11T08:32:06.693Z,0.82
2023-09-11T08:35:09.205Z,1.20
2023-09-11T08:38:11.104Z,0.70
2023-09-11T08:41:14.036Z,0.80
2023-09-11T08:44:16.029Z,0.50
2023-09-11T08:47:19.693Z,0.70
2023-09-11T08:50:22.118Z,0.63
2023-09-11T08:53:24.380Z,1.20
2023-09-11T08:56:26.438Z,0.93
2023-09-11T08:59:30.124Z,1.85
2023-09-11T09:02:33.779Z,1.20
2023-09-11T09:05:36.938Z,1.27
2023-09-11T09:08:39.281Z,0.93
2023-09-11T09:11:49.068Z,0.70
2023-09-11T09:14:50.959Z,0.98
2023-09-11T09:17:52.888Z,1.00
2023-09-11T09:20:56.499Z,1.10
2023-09-11T09:24:09.490Z,1.20
2023-09-11T09:27:11.380Z,1.62
2023-09-11T09:30:31.724Z,0.95
2023-09-11T09:33:33.850Z,1.65
2023-09-11T09:36:35.793Z,1.30
2023-09-11T09:39:41.753Z,1.17
2023-09-11T09:42:43.733Z,1.52
2023-09-11T09:45:45.823Z,1.30
2023-09-11T09:48:47.748Z,1.50
2023-09-11T09:51:50.001Z,1.15
2023-09-11T09:55:00.244Z,1.43
2023-09-11T09:58:02.034Z,1.20
2023-09-11T10:01:03.897Z,1.30
2023-09-11T10:04:16.562Z,1.35
2023-09-11T10:07:36.518Z,1.50
2023-09-11T10:10:38.298Z,1.67
2023-09-11T10:13:44.394Z,1.80
2023-09-11T10:16:47.355Z,1.12
2023-09-11T10:19:50.017Z,1.65
2023-09-11T10:22:56.292Z,1.40
2023-09-11T10:26:00.357Z,1.10
2023-09-11T10:29:05.130Z,1.30
2023-09-11T10:32:11.478Z,1.55
2023-09-11T10:35:13.376Z,1.20
2023-09-11T10:38:16.528Z,1.95
2023-09-11T10:41:18.411Z,1.40
2023-09-11T10:44:20.241Z,1.30
2023-09-11T10:47:23.565Z,1.25
2023-09-11T10:50:45.612Z,1.20
2023-09-11T10:53:51.600Z,1.90
2023-09-11T10:56:53.560Z,1.47
2023-09-11T10:59:55.589Z,1.70
2023-09-11T11:02:58.444Z,1.23
2023-09-11T11:06:01.724Z,1.67
2023-09-11T11:09:03.845Z,1.40
2023-09-11T11:12:09.511Z,1.47
2023-09-11T11:15:29.901Z,1.40
2023-09-11T11:18:32.080Z,1.30
2023-09-11T11:21:41.058Z,1.10
2023-09-11T11:24:58.931Z,1.23
2023-09-11T11:28:23.142Z,1.93
2023-09-11T11:31:25.885Z,1.23
2023-09-11T11:34:30.940Z,2.50
2023-09-11T11:37:33.675Z,1.20
2023-09-11T11:40:36.417Z,1.67
2023-09-11T11:43:38.274Z,2.13
2023-09-11T11:46:40.677Z,1.25
2023-09-11T11:49:42.695Z,2.08
2023-09-11T11:52:47.750Z,1.35
2023-09-11T11:55:51.007Z,1.53
2023-09-11T11:58:56.924Z,2.40
2023-09-11T12:01:58.964Z,1.52
2023-09-11T12:05:01.138Z,1.20
2023-09-11T12:08:03.952Z,1.50
2023-09-11T12:11:08.800Z,1.80
2023-09-11T12:14:17.161Z,1.37
2023-09-11T12:17:18.980Z,1.55
2023-09-11T12:20:24.817Z,1.02
2023-09-11T12:23:26.980Z,1.50
2023-09-11T12:26:29.939Z,2.03
2023-09-11T12:29:33.553Z,1.33
2023-09-11T12:32:35.395Z,1.70
2023-09-11T12:35:37.572Z,1.08
2023-09-11T12:38:39.490Z,1.40
2023-09-11T12:41:41.661Z,1.10
2023-09-11T12:44:43.578Z,1.30
2023-09-11T12:47:45.513Z,1.10
2023-09-11T12:50:47.402Z,1.50
2023-09-11T12:53:49.801Z,1.37
2023-09-11T12:56:51.631Z,1.47
2023-09-11T12:59:53.461Z,1.50
2023-09-11T13:03:07.563Z,1.60
2023-09-11T13:06:09.597Z,1.23
2023-09-11T13:09:11.617Z,2.10
2023-09-11T13:12:13.604Z,1.73
2023-09-11T13:15:16.308Z,1.50
2023-09-11T13:18:18.359Z,1.20
2023-09-11T13:21:20.329Z,1.48
2023-09-11T13:24:22.288Z,1.60
2023-09-11T13:27:24.175Z,1.17
2023-09-11T13:30:26.051Z,1.30
2023-09-11T13:33:28.674Z,1.40
2023-09-11T13:36:30.510Z,1.92
2023-09-11T13:39:32.296Z,0.95
2023-09-11T13:42:34.482Z,1.43
2023-09-11T13:45:36.273Z,1.57
2023-09-11T13:48:38.255Z,1.67
2023-09-11T13:51:40.134Z,1.52
2023-09-11T13:54:42.129Z,1.35
2023-09-11T13:57:43.808Z,1.90
2023-09-11T14:00:45.746Z,2.07
2023-09-11T14:03:47.634Z,1.00
2023-09-11T14:06:49.581Z,1.92
2023-09-11T14:09:51.377Z,1.48
2023-09-11T14:12:53.105Z,1.40
2023-09-11T14:15:55.092Z,1.30
2023-09-11T14:18:57.041Z,1.42
2023-09-11T14:21:58.889Z,0.82
2023-09-11T14:25:00.771Z,1.40
2023-09-11T14:28:02.936Z,2.23
2023-09-11T14:31:04.825Z,1.20
2023-09-11T14:34:06.647Z,1.10
2023-09-11T14:40:14.935Z,1.30
2023-09-11T14:43:16.649Z,1.30
2023-09-11T14:46:18.718Z,1.10
2023-09-11T14:49:20.530Z,1.10
2023-09-11T14:52:22.432Z,0.88
2023-09-11T14:55:24.245Z,1.35
2023-09-11T14:58:26.025Z,1.03
2023-09-11T15:01:27.884Z,1.20
2023-09-11T15:04:46.698Z,1.42
2023-09-11T15:07:51.079Z,1.00
2023-09-11T15:11:00.317Z,1.17
2023-09-11T15:14:03.273Z,1.30
2023-09-11T15:17:05.711Z,0.93
2023-09-11T15:20:07.935Z,1.85
2023-09-11T15:23:09.786Z,1.08
2023-09-11T15:26:11.608Z,0.90
2023-09-11T15:29:13.378Z,0.70
2023-09-11T15:32:15.207Z,0.80
2023-09-11T15:35:17.417Z,0.93
2023-09-11T15:38:19.717Z,1.00
2023-09-11T15:41:21.692Z,1.17
2023-09-11T15:44:23.534Z,1.10
2023-09-11T15:47:25.588Z,1.20
2023-09-11T15:50:27.432Z,1.23
2023-09-11T15:53:29.674Z,1.33
2023-09-11T15:56:31.883Z,0.80
2023-09-11T15:59:33.728Z,1.10
2023-09-11T16:02:35.640Z,1.10
2023-09-11T16:05:37.715Z,0.60
2023-09-11T16:08:39.823Z,0.80
2023-09-11T16:11:41.914Z,1.00
2023-09-11T16:14:43.785Z,1.13
2023-09-11T16:17:46.443Z,0.90
2023-09-11T16:20:49.226Z,0.90
2023-09-11T16:23:51.014Z,1.10
2023-09-11T16:26:52.983Z,1.15
2023-09-11T16:29:54.968Z,0.70
2023-09-11T16:32:59.015Z,1.37
2023-09-11T16:36:01.091Z,1.05
2023-09-11T16:39:03.907Z,1.05
2023-09-11T16:42:09.098Z,0.85
2023-09-11T16:45:12.397Z,0.70
2023-09-11T16:48:15.111Z,1.00
2023-09-11T16:51:17.020Z,0.98
2023-09-11T16:54:18.929Z,1.52
2023-09-11T16:57:20.835Z,1.08
2023-09-11T17:00:24.462Z,1.17
2023-09-11T17:03:26.335Z,0.80
2023-09-11T17:06:28.334Z,0.90
2023-09-11T17:09:30.161Z,0.80
2023-09-11T17:12:32.456Z,1.05
2023-09-11T17:15:34.196Z,0.87
2023-09-11T17:18:36.154Z,0.83
2023-09-11T17:21:38.039Z,0.80
2023-09-11T17:24:40.084Z,0.75
2023-09-11T17:27:41.906Z,1.27
2023-09-11T17:30:43.718Z,0.80
2023-09-11T17:33:45.615Z,0.80
2023-09-11T17:36:47.691Z,0.55
2023-09-11T17:39:49.994Z,0.47
2023-09-11T17:42:52.043Z,2.08
2023-09-11T17:45:54.153Z,0.50
2023-09-11T17:48:55.986Z,1.10
2023-09-11T17:51:57.858Z,2.05
2023-09-11T17:54:59.647Z,1.42
2023-09-11T17:58:01.391Z,1.45
2023-09-11T18:01:03.112Z,1.43
2023-09-11T18:04:05.405Z,1.03
2023-09-11T18:07:08.232Z,2.22
2023-09-11T18:10:10.370Z,1.00
2023-09-11T18:13:12.653Z,0.60
2023-09-11T18:16:14.511Z,1.20
2023-09-11T18:19:16.347Z,0.90
2023-09-11T18:22:18.348Z,1.65
2023-09-11T18:25:21.604Z,0.80
2023-09-11T18:28:23.633Z,1.65
2023-09-11T18:31:25.454Z,1.30
2023-09-11T18:34:29.515Z,1.67
2023-09-11T18:37:32.738Z,1.83
2023-09-11T18:40:34.703Z,0.82
2023-09-11T18:43:36.678Z,2.00
2023-09-11T18:46:41.697Z,1.63
2023-09-11T18:49:43.773Z,1.13
2023-09-11T18:52:46.722Z,1.30
2023-09-11T18:55:49.844Z,0.62
2023-09-11T18:58:52.960Z,0.82
2023-09-11T19:02:02.604Z,1.43
2023-09-11T19:05:05.006Z,1.03
2023-09-11T19:08:08.423Z,0.50
2023-09-11T19:11:12.369Z,0.90
2023-09-11T19:14:14.311Z,0.85
2023-09-11T19:17:17.261Z,0.40
2023-09-11T19:20:19.140Z,0.60
2023-09-11T19:23:20.893Z,0.40
2023-09-11T19:26:22.647Z,0.37
2023-09-11T19:29:24.507Z,0.55
2023-09-11T19:32:26.230Z,0.90
2023-09-11T19:35:28.242Z,0.43
2023-09-11T19:38:30.521Z,0.40
2023-09-11T19:41:32.387Z,0.50
2023-09-11T19:44:34.377Z,0.50
2023-09-11T19:47:36.237Z,1.10
2023-09-11T19:50:38.004Z,0.53
2023-09-11T19:53:39.737Z,0.80
2023-09-11T19:56:41.506Z,0.80
2023-09-11T19:59:43.339Z,0.50
2023-09-11T20:02:45.312Z,0.30
2023-09-11T20:05:47.549Z,0.47
2023-09-11T20:08:49.374Z,0.80
2023-09-11T20:11:51.254Z,0.55
2023-09-11T20:14:53.234Z,0.68
2023-09-11T20:17:55.061Z,0.60
2023-09-11T20:20:56.917Z,0.97
2023-09-11T20:23:58.775Z,0.50
2023-09-11T20:27:00.754Z,0.30
2023-09-11T20:30:02.809Z,0.37
2023-09-11T20:33:05.009Z,0.80
2023-09-11T20:36:14.231Z,0.63
2023-09-11T20:39:16.142Z,0.95
2023-09-11T20:42:17.900Z,0.40
2023-09-11T20:45:19.701Z,1.23
2023-09-11T20:48:21.639Z,0.30
2023-09-11T20:51:23.710Z,0.43
2023-09-11T20:54:26.787Z,0.40
2023-09-11T20:57:28.634Z,0.30
2023-09-11T21:00:30.434Z,0.47
2023-09-11T21:03:33.241Z,0.40
2023-09-11T21:06:35.425Z,0.60
2023-09-11T21:09:37.252Z,1.33
2023-09-11T21:12:52.380Z,0.60
2023-09-11T21:15:54.205Z,0.82
2023-09-11T21:18:56.244Z,0.60
2023-09-11T21:21:58.081Z,0.70
2023-09-11T21:24:59.826Z,1.10
2023-09-11T21:28:01.883Z,0.40
2023-09-11T21:31:04.136Z,0.55
2023-09-11T21:34:06.223Z,0.70
2023-09-11T21:37:08.080Z,0.43
2023-09-11T21:40:10.669Z,0.43
2023-09-11T21:43:13.032Z,0.52
2023-09-11T21:46:17.205Z,0.80
2023-09-11T21:49:19.171Z,0.33
2023-09-11T21:52:21.384Z,0.43
2023-09-11T21:55:23.224Z,0.35
2023-09-11T21:58:24.992Z,0.45
2023-09-11T22:01:27.165Z,0.40
2023-09-11T22:04:29.068Z,1.07
2023-09-11T22:07:30.866Z,0.30
2023-09-11T22:10:32.549Z,0.43
2023-09-11T22:13:34.292Z,0.40
2023-09-11T22:16:36.069Z,0.30
2023-09-11T22:19:37.796Z,0.30
2023-09-11T22:22:39.568Z,0.70
2023-09-11T22:25:41.379Z,0.85
2023-09-11T22:28:43.120Z,0.25
2023-09-11T22:31:44.963Z,0.40
2023-09-11T22:34:47.004Z,0.40
2023-09-11T22:37:48.891Z,0.40
2023-09-11T22:40:50.669Z,0.30
2023-09-11T22:43:52.493Z,0.62
2023-09-11T22:46:54.238Z,0.40
2023-09-11T22:49:56.517Z,0.30
2023-09-11T22:52:58.568Z,0.50
2023-09-11T22:56:03.515Z,0.52
2023-09-11T22:59:05.341Z,1.00
2023-09-11T23:02:07.147Z,0.40
2023-09-11T23:05:09.984Z,0.70
2023-09-11T23:08:11.798Z,0.50
2023-09-11T23:11:13.595Z,0.40
2023-09-11T23:14:15.349Z,0.47
2023-09-11T23:17:17.222Z,0.30
2023-09-11T23:20:19.018Z,0.47
2023-09-11T23:23:20.848Z,0.50
2023-09-11T23:26:22.796Z,0.73
2023-09-11T23:29:24.536Z,0.20
2023-09-11T23:32:26.334Z,0.40
2023-09-11T23:35:28.205Z,0.20
2023-09-11T23:38:30.100Z,0.90
2023-09-11T23:41:31.971Z,0.40
2023-09-11T23:44:33.774Z,0.40
2023-09-11T23:47:35.532Z,2.72
2023-09-11T23:50:37.293Z,0.53
2023-09-11T23:53:39.225Z,0.40
2023-09-11T23:56:43.481Z,0.65
2023-09-11T23:59:45.416Z,0.50
